sensor_id;sensor_type;location;lat;lon;timestamp;P1;durP1;ratioP1;P2;durP2;ratioP2
80503;SDS011;69825;51.190;6.808;2023-07-28T00:01:28;0.90;;;0.90;;
80503;SDS011;69825;51.190;6.808;2023-07-28T00:03:53;0.70;;;0.70;;
80503;SDS011;69825;51.190;6.808;2023-07-28T00:06:19;0.80;;;0.80;;
80503;SDS011;69825;51.190;6.808;2023-07-28T00:08:44;0.90;;;0.90;;
80503;SDS011;69825;51.190;6.808;2023-07-28T00:11:10;0.70;;;0.70;;
80503;SDS011;69825;51.190;6.808;2023-07-28T00:13:37;0.60;;;0.60;;
80503;SDS011;69825;51.190;6.808;2023-07-28T00:16:03;0.80;;;0.80;;
80503;SDS011;69825;51.190;6.808;2023-07-28T00:18:28;0.77;;;0.77;;
80503;SDS011;69825;51.190;6.808;2023-07-28T00:20:54;0.77;;;0.77;;
80503;SDS011;69825;51.190;6.808;2023-07-28T00:23:19;0.80;;;0.80;;
80503;SDS011;69825;51.190;6.808;2023-07-28T00:25:44;0.88;;;0.88;;
80503;SDS011;69825;51.190;6.808;2023-07-28T00:28:10;0.75;;;0.75;;
80503;SDS011;69825;51.190;6.808;2023-07-28T00:30:35;0.65;;;0.65;;
80503;SDS011;69825;51.190;6.808;2023-07-28T00:33:00;0.70;;;0.70;;
80503;SDS011;69825;51.190;6.808;2023-07-28T00:35:26;0.70;;;0.70;;
80503;SDS011;69825;51.190;6.808;2023-07-28T00:37:51;0.90;;;0.90;;
80503;SDS011;69825;51.190;6.808;2023-07-28T00:40:16;0.80;;;0.80;;
80503;SDS011;69825;51.190;6.808;2023-07-28T00:42:42;0.88;;;0.88;;
80503;SDS011;69825;51.190;6.808;2023-07-28T00:45:07;0.70;;;0.70;;
80503;SDS011;69825;51.190;6.808;2023-07-28T00:47:33;0.70;;;0.70;;
80503;SDS011;69825;51.190;6.808;2023-07-28T00:49:59;1.10;;;0.90;;
80503;SDS011;69825;51.190;6.808;2023-07-28T00:52:25;0.82;;;0.70;;
80503;SDS011;69825;51.190;6.808;2023-07-28T00:54:50;0.88;;;0.88;;
80503;SDS011;69825;51.190;6.808;2023-07-28T00:57:15;0.80;;;0.80;;
80503;SDS011;69825;51.190;6.808;2023-07-28T00:59:43;0.88;;;0.70;;
80503;SDS011;69825;51.190;6.808;2023-07-28T01:02:09;0.80;;;0.80;;
80503;SDS011;69825;51.190;6.808;2023-07-28T01:04:35;0.88;;;0.88;;
80503;SDS011;69825;51.190;6.808;2023-07-28T01:07:10;0.90;;;0.90;;
80503;SDS011;69825;51.190;6.808;2023-07-28T01:09:42;0.73;;;0.73;;
80503;SDS011;69825;51.190;6.808;2023-07-28T01:12:12;0.70;;;0.70;;
80503;SDS011;69825;51.190;6.808;2023-07-28T01:14:37;0.80;;;0.80;;
80503;SDS011;69825;51.190;6.808;2023-07-28T01:17:02;1.23;;;0.70;;
80503;SDS011;69825;51.190;6.808;2023-07-28T01:19:28;0.60;;;0.60;;
80503;SDS011;69825;51.190;6.808;2023-07-28T01:21:57;0.90;;;0.90;;
80503;SDS011;69825;51.190;6.808;2023-07-28T01:28:08;0.90;;;0.90;;
80503;SDS011;69825;51.190;6.808;2023-07-28T01:30:35;0.80;;;0.80;;
80503;SDS011;69825;51.190;6.808;2023-07-28T01:33:01;0.80;;;0.80;;
80503;SDS011;69825;51.190;6.808;2023-07-28T01:35:32;0.80;;;0.80;;
80503;SDS011;69825;51.190;6.808;2023-07-28T01:37:57;0.70;;;0.70;;
80503;SDS011;69825;51.190;6.808;2023-07-28T01:40:22;1.00;;;0.80;;
80503;SDS011;69825;51.190;6.808;2023-07-28T01:42:48;0.68;;;0.68;;
80503;SDS011;69825;51.190;6.808;2023-07-28T01:45:13;0.90;;;0.90;;
80503;SDS011;69825;51.190;6.808;2023-07-28T01:47:38;0.70;;;0.70;;
80503;SDS011;69825;51.190;6.808;2023-07-28T01:50:04;0.90;;;0.70;;
80503;SDS011;69825;51.190;6.808;2023-07-28T01:52:30;0.68;;;0.68;;
80503;SDS011;69825;51.190;6.808;2023-07-28T01:54:55;0.88;;;0.88;;
80503;SDS011;69825;51.190;6.808;2023-07-28T01:57:20;0.70;;;0.70;;
80503;SDS011;69825;51.190;6.808;2023-07-28T01:59:49;0.82;;;0.80;;
80503;SDS011;69825;51.190;6.808;2023-07-28T02:02:17;0.70;;;0.70;;
80503;SDS011;69825;51.190;6.808;2023-07-28T02:04:42;0.68;;;0.68;;
80503;SDS011;69825;51.190;6.808;2023-07-28T02:07:07;0.70;;;0.70;;
80503;SDS011;69825;51.190;6.808;2023-07-28T02:09:33;0.70;;;0.70;;
80503;SDS011;69825;51.190;6.808;2023-07-28T02:11:58;0.88;;;0.82;;
80503;SDS011;69825;51.190;6.808;2023-07-28T02:14:23;0.70;;;0.70;;
80503;SDS011;69825;51.190;6.808;2023-07-28T02:16:49;0.68;;;0.68;;
80503;SDS011;69825;51.190;6.808;2023-07-28T02:19:14;0.73;;;0.73;;
80503;SDS011;69825;51.190;6.808;2023-07-28T02:21:39;0.70;;;0.70;;
80503;SDS011;69825;51.190;6.808;2023-07-28T02:24:05;0.80;;;0.80;;
80503;SDS011;69825;51.190;6.808;2023-07-28T02:26:30;0.60;;;0.60;;
80503;SDS011;69825;51.190;6.808;2023-07-28T02:28:56;0.70;;;0.70;;
80503;SDS011;69825;51.190;6.808;2023-07-28T02:31:21;0.68;;;0.68;;
80503;SDS011;69825;51.190;6.808;2023-07-28T02:33:46;0.65;;;0.65;;
80503;SDS011;69825;51.190;6.808;2023-07-28T02:36:12;0.70;;;0.65;;
80503;SDS011;69825;51.190;6.808;2023-07-28T02:38:37;0.88;;;0.70;;
80503;SDS011;69825;51.190;6.808;2023-07-28T02:41:02;0.77;;;0.77;;
80503;SDS011;69825;51.190;6.808;2023-07-28T02:43:29;0.80;;;0.80;;
80503;SDS011;69825;51.190;6.808;2023-07-28T02:45:55;0.80;;;0.80;;
80503;SDS011;69825;51.190;6.808;2023-07-28T02:48:21;0.70;;;0.70;;
80503;SDS011;69825;51.190;6.808;2023-07-28T02:50:48;0.80;;;0.80;;
80503;SDS011;69825;51.190;6.808;2023-07-28T02:53:15;0.80;;;0.80;;
80503;SDS011;69825;51.190;6.808;2023-07-28T02:55:41;0.60;;;0.60;;
80503;SDS011;69825;51.190;6.808;2023-07-28T02:58:07;0.57;;;0.57;;
80503;SDS011;69825;51.190;6.808;2023-07-28T03:00:33;0.60;;;0.60;;
80503;SDS011;69825;51.190;6.808;2023-07-28T03:02:58;0.52;;;0.52;;
80503;SDS011;69825;51.190;6.808;2023-07-28T03:05:23;0.77;;;0.77;;
80503;SDS011;69825;51.190;6.808;2023-07-28T03:07:49;0.70;;;0.70;;
80503;SDS011;69825;51.190;6.808;2023-07-28T03:10:14;0.60;;;0.60;;
80503;SDS011;69825;51.190;6.808;2023-07-28T03:12:42;0.60;;;0.60;;
80503;SDS011;69825;51.190;6.808;2023-07-28T03:15:07;0.70;;;0.70;;
80503;SDS011;69825;51.190;6.808;2023-07-28T03:17:33;1.10;;;0.70;;
80503;SDS011;69825;51.190;6.808;2023-07-28T03:19:58;0.68;;;0.68;;
80503;SDS011;69825;51.190;6.808;2023-07-28T03:22:23;0.57;;;0.57;;
80503;SDS011;69825;51.190;6.808;2023-07-28T03:24:49;0.70;;;0.70;;
80503;SDS011;69825;51.190;6.808;2023-07-28T03:27:14;0.70;;;0.70;;
80503;SDS011;69825;51.190;6.808;2023-07-28T03:29:40;0.60;;;0.60;;
80503;SDS011;69825;51.190;6.808;2023-07-28T03:32:05;0.60;;;0.60;;
80503;SDS011;69825;51.190;6.808;2023-07-28T03:34:31;0.70;;;0.70;;
80503;SDS011;69825;51.190;6.808;2023-07-28T03:36:56;0.63;;;0.63;;
80503;SDS011;69825;51.190;6.808;2023-07-28T03:39:21;0.70;;;0.70;;
80503;SDS011;69825;51.190;6.808;2023-07-28T03:41:47;0.80;;;0.80;;
80503;SDS011;69825;51.190;6.808;2023-07-28T03:44:12;0.50;;;0.50;;
80503;SDS011;69825;51.190;6.808;2023-07-28T03:46:37;0.55;;;0.55;;
80503;SDS011;69825;51.190;6.808;2023-07-28T03:49:03;0.60;;;0.60;;
80503;SDS011;69825;51.190;6.808;2023-07-28T03:51:28;0.70;;;0.70;;
80503;SDS011;69825;51.190;6.808;2023-07-28T03:53:53;0.55;;;0.55;;
80503;SDS011;69825;51.190;6.808;2023-07-28T03:56:19;0.70;;;0.70;;
80503;SDS011;69825;51.190;6.808;2023-07-28T03:58:44;0.70;;;0.70;;
80503;SDS011;69825;51.190;6.808;2023-07-28T04:01:09;0.50;;;0.50;;
80503;SDS011;69825;51.190;6.808;2023-07-28T04:03:35;0.70;;;0.70;;
80503;SDS011;69825;51.190;6.808;2023-07-28T04:06:04;0.60;;;0.60;;
80503;SDS011;69825;51.190;6.808;2023-07-28T04:08:31;0.60;;;0.60;;
80503;SDS011;69825;51.190;6.808;2023-07-28T04:10:57;0.75;;;0.75;;
80503;SDS011;69825;51.190;6.808;2023-07-28T04:13:22;0.68;;;0.68;;
80503;SDS011;69825;51.190;6.808;2023-07-28T04:15:47;0.60;;;0.60;;
80503;SDS011;69825;51.190;6.808;2023-07-28T04:18:13;0.60;;;0.60;;
80503;SDS011;69825;51.190;6.808;2023-07-28T04:20:38;0.90;;;0.90;;
80503;SDS011;69825;51.190;6.808;2023-07-28T04:23:04;0.70;;;0.70;;
80503;SDS011;69825;51.190;6.808;2023-07-28T04:25:29;0.60;;;0.60;;
80503;SDS011;69825;51.190;6.808;2023-07-28T04:27:54;0.50;;;0.50;;
80503;SDS011;69825;51.190;6.808;2023-07-28T04:30:21;0.50;;;0.50;;
80503;SDS011;69825;51.190;6.808;2023-07-28T04:32:46;0.70;;;0.70;;
80503;SDS011;69825;51.190;6.808;2023-07-28T04:35:12;0.70;;;0.70;;
80503;SDS011;69825;51.190;6.808;2023-07-28T04:37:37;0.60;;;0.60;;
80503;SDS011;69825;51.190;6.808;2023-07-28T04:40:03;0.57;;;0.57;;
80503;SDS011;69825;51.190;6.808;2023-07-28T04:42:29;0.60;;;0.60;;
80503;SDS011;69825;51.190;6.808;2023-07-28T04:44:54;0.52;;;0.52;;
80503;SDS011;69825;51.190;6.808;2023-07-28T04:47:19;0.52;;;0.50;;
80503;SDS011;69825;51.190;6.808;2023-07-28T04:49:47;0.50;;;0.50;;
80503;SDS011;69825;51.190;6.808;2023-07-28T04:52:18;0.60;;;0.60;;
80503;SDS011;69825;51.190;6.808;2023-07-28T04:54:43;0.50;;;0.50;;
80503;SDS011;69825;51.190;6.808;2023-07-28T04:57:09;0.60;;;0.60;;
80503;SDS011;69825;51.190;6.808;2023-07-28T04:59:34;0.50;;;0.50;;
80503;SDS011;69825;51.190;6.808;2023-07-28T05:01:59;0.60;;;0.60;;
80503;SDS011;69825;51.190;6.808;2023-07-28T05:04:25;0.50;;;0.50;;
80503;SDS011;69825;51.190;6.808;2023-07-28T05:06:50;0.60;;;0.60;;
80503;SDS011;69825;51.190;6.808;2023-07-28T05:09:16;0.60;;;0.60;;
80503;SDS011;69825;51.190;6.808;2023-07-28T05:11:41;0.52;;;0.52;;
80503;SDS011;69825;51.190;6.808;2023-07-28T05:14:06;0.60;;;0.60;;
80503;SDS011;69825;51.190;6.808;2023-07-28T05:16:33;0.50;;;0.50;;
80503;SDS011;69825;51.190;6.808;2023-07-28T05:18:59;0.60;;;0.60;;
80503;SDS011;69825;51.190;6.808;2023-07-28T05:21:25;0.60;;;0.60;;
80503;SDS011;69825;51.190;6.808;2023-07-28T05:23:50;0.60;;;0.60;;
80503;SDS011;69825;51.190;6.808;2023-07-28T05:26:15;0.60;;;0.60;;
80503;SDS011;69825;51.190;6.808;2023-07-28T05:28:41;0.70;;;0.70;;
80503;SDS011;69825;51.190;6.808;2023-07-28T05:31:06;0.50;;;0.50;;
80503;SDS011;69825;51.190;6.808;2023-07-28T05:33:32;0.60;;;0.60;;
80503;SDS011;69825;51.190;6.808;2023-07-28T05:36:03;0.47;;;0.47;;
80503;SDS011;69825;51.190;6.808;2023-07-28T05:38:29;0.60;;;0.60;;
80503;SDS011;69825;51.190;6.808;2023-07-28T05:40:58;0.77;;;0.70;;
80503;SDS011;69825;51.190;6.808;2023-07-28T05:43:25;0.50;;;0.50;;
80503;SDS011;69825;51.190;6.808;2023-07-28T05:46:00;0.50;;;0.50;;
80503;SDS011;69825;51.190;6.808;2023-07-28T05:48:26;0.65;;;0.65;;
80503;SDS011;69825;51.190;6.808;2023-07-28T05:50:51;0.50;;;0.50;;
80503;SDS011;69825;51.190;6.808;2023-07-28T05:53:18;0.50;;;0.50;;
80503;SDS011;69825;51.190;6.808;2023-07-28T05:55:45;0.98;;;0.50;;
80503;SDS011;69825;51.190;6.808;2023-07-28T05:58:11;1.27;;;0.60;;
80503;SDS011;69825;51.190;6.808;2023-07-28T06:00:38;0.40;;;0.40;;
80503;SDS011;69825;51.190;6.808;2023-07-28T06:03:04;0.55;;;0.50;;
80503;SDS011;69825;51.190;6.808;2023-07-28T06:05:29;0.50;;;0.50;;
80503;SDS011;69825;51.190;6.808;2023-07-28T06:07:55;0.50;;;0.50;;
80503;SDS011;69825;51.190;6.808;2023-07-28T06:10:20;0.50;;;0.50;;
80503;SDS011;69825;51.190;6.808;2023-07-28T06:12:45;0.68;;;0.60;;
80503;SDS011;69825;51.190;6.808;2023-07-28T06:15:11;0.50;;;0.50;;
80503;SDS011;69825;51.190;6.808;2023-07-28T06:17:36;0.60;;;0.60;;
80503;SDS011;69825;51.190;6.808;2023-07-28T06:20:01;0.50;;;0.50;;
80503;SDS011;69825;51.190;6.808;2023-07-28T06:22:27;0.60;;;0.60;;
80503;SDS011;69825;51.190;6.808;2023-07-28T06:24:52;0.50;;;0.50;;
80503;SDS011;69825;51.190;6.808;2023-07-28T06:27:17;0.63;;;0.60;;
80503;SDS011;69825;51.190;6.808;2023-07-28T06:29:44;0.50;;;0.50;;
80503;SDS011;69825;51.190;6.808;2023-07-28T06:32:09;0.65;;;0.60;;
80503;SDS011;69825;51.190;6.808;2023-07-28T06:34:35;0.60;;;0.60;;
80503;SDS011;69825;51.190;6.808;2023-07-28T06:37:00;0.43;;;0.43;;
80503;SDS011;69825;51.190;6.808;2023-07-28T06:39:26;1.00;;;0.60;;
80503;SDS011;69825;51.190;6.808;2023-07-28T06:41:51;0.73;;;0.60;;
80503;SDS011;69825;51.190;6.808;2023-07-28T06:44:17;0.70;;;0.70;;
80503;SDS011;69825;51.190;6.808;2023-07-28T06:46:42;0.60;;;0.60;;
80503;SDS011;69825;51.190;6.808;2023-07-28T06:49:08;0.60;;;0.60;;
80503;SDS011;69825;51.190;6.808;2023-07-28T06:51:33;0.68;;;0.68;;
80503;SDS011;69825;51.190;6.808;2023-07-28T06:53:58;0.68;;;0.68;;
80503;SDS011;69825;51.190;6.808;2023-07-28T06:56:24;0.95;;;0.60;;
80503;SDS011;69825;51.190;6.808;2023-07-28T06:58:49;0.98;;;0.50;;
80503;SDS011;69825;51.190;6.808;2023-07-28T07:01:15;2.10;;;0.70;;
80503;SDS011;69825;51.190;6.808;2023-07-28T07:03:40;1.10;;;0.50;;
80503;SDS011;69825;51.190;6.808;2023-07-28T07:06:06;0.60;;;0.60;;
80503;SDS011;69825;51.190;6.808;2023-07-28T07:08:31;0.80;;;0.60;;
80503;SDS011;69825;51.190;6.808;2023-07-28T07:10:57;1.40;;;0.63;;
80503;SDS011;69825;51.190;6.808;2023-07-28T07:13:23;0.60;;;0.60;;
80503;SDS011;69825;51.190;6.808;2023-07-28T07:15:48;0.47;;;0.47;;
80503;SDS011;69825;51.190;6.808;2023-07-28T07:18:13;0.77;;;0.70;;
80503;SDS011;69825;51.190;6.808;2023-07-28T07:20:39;1.48;;;0.60;;
80503;SDS011;69825;51.190;6.808;2023-07-28T07:23:04;0.63;;;0.63;;
80503;SDS011;69825;51.190;6.808;2023-07-28T07:25:30;0.60;;;0.60;;
80503;SDS011;69825;51.190;6.808;2023-07-28T07:27:55;0.75;;;0.68;;
80503;SDS011;69825;51.190;6.808;2023-07-28T07:30:21;1.90;;;0.80;;
80503;SDS011;69825;51.190;6.808;2023-07-28T07:32:47;0.60;;;0.60;;
80503;SDS011;69825;51.190;6.808;2023-07-28T07:35:12;1.13;;;0.80;;
80503;SDS011;69825;51.190;6.808;2023-07-28T07:37:38;0.77;;;0.68;;
80503;SDS011;69825;51.190;6.808;2023-07-28T07:40:04;0.70;;;0.70;;
80503;SDS011;69825;51.190;6.808;2023-07-28T07:42:45;0.75;;;0.75;;
80503;SDS011;69825;51.190;6.808;2023-07-28T07:45:12;2.10;;;0.90;;
80503;SDS011;69825;51.190;6.808;2023-07-28T07:47:38;0.65;;;0.65;;
80503;SDS011;69825;51.190;6.808;2023-07-28T07:50:05;1.98;;;0.90;;
80503;SDS011;69825;51.190;6.808;2023-07-28T07:52:32;1.65;;;0.90;;
80503;SDS011;69825;51.190;6.808;2023-07-28T07:54:57;1.23;;;0.90;;
80503;SDS011;69825;51.190;6.808;2023-07-28T07:57:22;1.75;;;0.93;;
80503;SDS011;69825;51.190;6.808;2023-07-28T07:59:48;1.00;;;1.00;;
80503;SDS011;69825;51.190;6.808;2023-07-28T08:02:13;1.67;;;1.00;;
80503;SDS011;69825;51.190;6.808;2023-07-28T08:04:38;3.08;;;1.10;;
80503;SDS011;69825;51.190;6.808;2023-07-28T08:07:04;0.73;;;0.73;;
80503;SDS011;69825;51.190;6.808;2023-07-28T08:09:30;0.70;;;0.70;;
80503;SDS011;69825;51.190;6.808;2023-07-28T08:11:55;1.73;;;0.80;;
80503;SDS011;69825;51.190;6.808;2023-07-28T08:14:21;0.70;;;0.70;;
80503;SDS011;69825;51.190;6.808;2023-07-28T08:16:46;1.52;;;0.95;;
80503;SDS011;69825;51.190;6.808;2023-07-28T08:19:12;0.70;;;0.70;;
80503;SDS011;69825;51.190;6.808;2023-07-28T08:21:37;0.60;;;0.60;;
80503;SDS011;69825;51.190;6.808;2023-07-28T08:24:03;0.68;;;0.68;;
80503;SDS011;69825;51.190;6.808;2023-07-28T08:26:29;1.27;;;0.82;;
80503;SDS011;69825;51.190;6.808;2023-07-28T08:28:58;1.77;;;0.80;;
80503;SDS011;69825;51.190;6.808;2023-07-28T08:33:54;1.40;;;0.77;;
80503;SDS011;69825;51.190;6.808;2023-07-28T08:36:19;1.17;;;1.00;;
80503;SDS011;69825;51.190;6.808;2023-07-28T08:38:44;1.05;;;0.60;;
80503;SDS011;69825;51.190;6.808;2023-07-28T08:41:10;1.48;;;0.77;;
80503;SDS011;69825;51.190;6.808;2023-07-28T08:43:36;0.80;;;0.80;;
80503;SDS011;69825;51.190;6.808;2023-07-28T08:46:01;0.60;;;0.60;;
80503;SDS011;69825;51.190;6.808;2023-07-28T08:48:28;0.65;;;0.65;;
80503;SDS011;69825;51.190;6.808;2023-07-28T08:50:53;0.70;;;0.70;;
80503;SDS011;69825;51.190;6.808;2023-07-28T08:53:19;0.60;;;0.60;;
80503;SDS011;69825;51.190;6.808;2023-07-28T08:55:44;0.73;;;0.70;;
80503;SDS011;69825;51.190;6.808;2023-07-28T08:58:13;0.80;;;0.80;;
80503;SDS011;69825;51.190;6.808;2023-07-28T09:00:49;0.82;;;0.82;;
80503;SDS011;69825;51.190;6.808;2023-07-28T09:03:16;0.60;;;0.60;;
80503;SDS011;69825;51.190;6.808;2023-07-28T09:05:45;1.85;;;0.95;;
80503;SDS011;69825;51.190;6.808;2023-07-28T09:08:15;0.70;;;0.70;;
80503;SDS011;69825;51.190;6.808;2023-07-28T09:13:11;3.00;;;0.90;;
80503;SDS011;69825;51.190;6.808;2023-07-28T09:15:37;1.08;;;0.98;;
80503;SDS011;69825;51.190;6.808;2023-07-28T09:18:03;0.90;;;0.90;;
80503;SDS011;69825;51.190;6.808;2023-07-28T09:20:35;2.90;;;1.35;;
80503;SDS011;69825;51.190;6.808;2023-07-28T09:23:01;1.25;;;1.13;;
80503;SDS011;69825;51.190;6.808;2023-07-28T09:25:28;1.85;;;1.30;;
80503;SDS011;69825;51.190;6.808;2023-07-28T09:27:55;1.20;;;1.20;;
80503;SDS011;69825;51.190;6.808;2023-07-28T09:30:20;1.10;;;1.10;;
80503;SDS011;69825;51.190;6.808;2023-07-28T09:32:47;3.35;;;1.08;;
80503;SDS011;69825;51.190;6.808;2023-07-28T09:35:14;1.50;;;1.13;;
80503;SDS011;69825;51.190;6.808;2023-07-28T09:37:41;1.67;;;1.25;;
80503;SDS011;69825;51.190;6.808;2023-07-28T09:40:11;1.85;;;1.10;;
80503;SDS011;69825;51.190;6.808;2023-07-28T09:42:41;1.55;;;1.08;;
80503;SDS011;69825;51.190;6.808;2023-07-28T09:45:08;1.13;;;0.90;;
80503;SDS011;69825;51.190;6.808;2023-07-28T09:47:35;1.08;;;0.95;;
80503;SDS011;69825;51.190;6.808;2023-07-28T09:50:05;1.23;;;1.10;;
80503;SDS011;69825;51.190;6.808;2023-07-28T09:52:42;1.30;;;1.10;;
80503;SDS011;69825;51.190;6.808;2023-07-28T09:55:09;1.02;;;0.90;;
80503;SDS011;69825;51.190;6.808;2023-07-28T09:57:41;1.90;;;1.13;;
80503;SDS011;69825;51.190;6.808;2023-07-28T10:00:10;1.08;;;1.00;;
80503;SDS011;69825;51.190;6.808;2023-07-28T10:02:38;1.10;;;1.00;;
80503;SDS011;69825;51.190;6.808;2023-07-28T10:05:07;0.80;;;0.80;;
80503;SDS011;69825;51.190;6.808;2023-07-28T10:07:37;0.95;;;0.95;;
80503;SDS011;69825;51.190;6.808;2023-07-28T10:10:08;0.90;;;0.90;;
80503;SDS011;69825;51.190;6.808;2023-07-28T10:12:42;1.05;;;0.98;;
80503;SDS011;69825;51.190;6.808;2023-07-28T10:15:12;2.25;;;0.90;;
80503;SDS011;69825;51.190;6.808;2023-07-28T10:18:00;0.85;;;0.85;;
80503;SDS011;69825;51.190;6.808;2023-07-28T10:20:29;0.88;;;0.88;;
80503;SDS011;69825;51.190;6.808;2023-07-28T10:23:07;1.20;;;1.10;;
80503;SDS011;69825;51.190;6.808;2023-07-28T10:25:45;0.95;;;0.95;;
80503;SDS011;69825;51.190;6.808;2023-07-28T10:31:04;1.10;;;1.00;;
80503;SDS011;69825;51.190;6.808;2023-07-28T10:36:13;1.85;;;1.13;;
80503;SDS011;69825;51.190;6.808;2023-07-28T10:38:44;1.42;;;1.00;;
80503;SDS011;69825;51.190;6.808;2023-07-28T10:43:42;0.80;;;0.80;;
80503;SDS011;69825;51.190;6.808;2023-07-28T10:46:09;1.00;;;0.90;;
80503;SDS011;69825;51.190;6.808;2023-07-28T10:48:36;0.95;;;0.80;;
80503;SDS011;69825;51.190;6.808;2023-07-28T10:51:05;0.95;;;0.90;;
80503;SDS011;69825;51.190;6.808;2023-07-28T10:53:31;0.80;;;0.73;;
80503;SDS011;69825;51.190;6.808;2023-07-28T10:55:57;0.85;;;0.85;;
80503;SDS011;69825;51.190;6.808;2023-07-28T10:58:24;0.90;;;0.90;;
80503;SDS011;69825;51.190;6.808;2023-07-28T11:00:50;0.80;;;0.80;;
80503;SDS011;69825;51.190;6.808;2023-07-28T11:03:17;0.80;;;0.80;;
80503;SDS011;69825;51.190;6.808;2023-07-28T11:05:42;0.90;;;0.90;;
80503;SDS011;69825;51.190;6.808;2023-07-28T11:08:08;1.08;;;1.08;;
80503;SDS011;69825;51.190;6.808;2023-07-28T11:10:33;2.58;;;0.90;;
80503;SDS011;69825;51.190;6.808;2023-07-28T11:13:00;1.13;;;0.98;;
80503;SDS011;69825;51.190;6.808;2023-07-28T11:15:27;0.98;;;0.90;;
80503;SDS011;69825;51.190;6.808;2023-07-28T11:17:53;0.82;;;0.80;;
80503;SDS011;69825;51.190;6.808;2023-07-28T11:20:20;1.08;;;1.08;;
80503;SDS011;69825;51.190;6.808;2023-07-28T11:22:51;0.82;;;0.80;;
80503;SDS011;69825;51.190;6.808;2023-07-28T11:25:25;0.75;;;0.75;;
80503;SDS011;69825;51.190;6.808;2023-07-28T11:27:51;0.90;;;0.90;;
80503;SDS011;69825;51.190;6.808;2023-07-28T11:30:18;0.90;;;0.90;;
80503;SDS011;69825;51.190;6.808;2023-07-28T11:32:48;0.90;;;0.90;;
80503;SDS011;69825;51.190;6.808;2023-07-28T11:35:15;0.90;;;0.90;;
80503;SDS011;69825;51.190;6.808;2023-07-28T11:37:43;1.02;;;1.00;;
80503;SDS011;69825;51.190;6.808;2023-07-28T11:40:11;0.75;;;0.75;;
80503;SDS011;69825;51.190;6.808;2023-07-28T11:45:19;0.95;;;0.90;;
80503;SDS011;69825;51.190;6.808;2023-07-28T11:50:38;0.82;;;0.82;;
80503;SDS011;69825;51.190;6.808;2023-07-28T11:53:05;0.85;;;0.85;;
80503;SDS011;69825;51.190;6.808;2023-07-28T11:55:31;0.80;;;0.70;;
80503;SDS011;69825;51.190;6.808;2023-07-28T11:57:57;0.90;;;0.90;;
80503;SDS011;69825;51.190;6.808;2023-07-28T12:00:33;0.75;;;0.75;;
80503;SDS011;69825;51.190;6.808;2023-07-28T12:03:03;0.70;;;0.70;;
80503;SDS011;69825;51.190;6.808;2023-07-28T12:05:29;0.80;;;0.80;;
80503;SDS011;69825;51.190;6.808;2023-07-28T12:07:55;1.00;;;1.00;;
80503;SDS011;69825;51.190;6.808;2023-07-28T12:10:21;0.93;;;0.93;;
80503;SDS011;69825;51.190;6.808;2023-07-28T12:12:46;0.80;;;0.80;;
80503;SDS011;69825;51.190;6.808;2023-07-28T12:20:51;0.90;;;0.90;;
80503;SDS011;69825;51.190;6.808;2023-07-28T12:23:16;0.98;;;0.90;;
80503;SDS011;69825;51.190;6.808;2023-07-28T12:25:42;0.75;;;0.75;;
80503;SDS011;69825;51.190;6.808;2023-07-28T12:28:09;1.00;;;0.80;;
80503;SDS011;69825;51.190;6.808;2023-07-28T12:30:35;0.70;;;0.70;;
80503;SDS011;69825;51.190;6.808;2023-07-28T12:33:02;0.93;;;0.90;;
80503;SDS011;69825;51.190;6.808;2023-07-28T12:35:29;1.00;;;0.90;;
80503;SDS011;69825;51.190;6.808;2023-07-28T12:37:59;0.82;;;0.80;;
80503;SDS011;69825;51.190;6.808;2023-07-28T12:40:26;1.23;;;0.95;;
80503;SDS011;69825;51.190;6.808;2023-07-28T12:42:54;0.90;;;0.90;;
80503;SDS011;69825;51.190;6.808;2023-07-28T12:45:20;0.90;;;0.70;;
80503;SDS011;69825;51.190;6.808;2023-07-28T12:47:46;0.80;;;0.80;;
80503;SDS011;69825;51.190;6.808;2023-07-28T12:50:11;0.80;;;0.80;;
80503;SDS011;69825;51.190;6.808;2023-07-28T12:52:37;0.80;;;0.80;;
80503;SDS011;69825;51.190;6.808;2023-07-28T12:55:02;1.23;;;0.90;;
80503;SDS011;69825;51.190;6.808;2023-07-28T12:57:28;0.98;;;0.80;;
80503;SDS011;69825;51.190;6.808;2023-07-28T12:59:53;1.27;;;0.90;;
80503;SDS011;69825;51.190;6.808;2023-07-28T13:02:19;0.75;;;0.70;;
80503;SDS011;69825;51.190;6.808;2023-07-28T13:04:44;0.80;;;0.80;;
80503;SDS011;69825;51.190;6.808;2023-07-28T13:07:10;0.85;;;0.85;;
80503;SDS011;69825;51.190;6.808;2023-07-28T13:09:35;0.80;;;0.80;;
80503;SDS011;69825;51.190;6.808;2023-07-28T13:12:00;0.80;;;0.80;;
80503;SDS011;69825;51.190;6.808;2023-07-28T13:14:26;1.70;;;0.80;;
80503;SDS011;69825;51.190;6.808;2023-07-28T13:16:51;0.70;;;0.70;;
80503;SDS011;69825;51.190;6.808;2023-07-28T13:19:17;1.63;;;0.77;;
80503;SDS011;69825;51.190;6.808;2023-07-28T13:21:42;1.15;;;0.90;;
80503;SDS011;69825;51.190;6.808;2023-07-28T13:24:07;1.02;;;0.77;;
80503;SDS011;69825;51.190;6.808;2023-07-28T13:26:33;1.50;;;0.80;;
80503;SDS011;69825;51.190;6.808;2023-07-28T13:28:58;1.05;;;1.05;;
80503;SDS011;69825;51.190;6.808;2023-07-28T13:31:26;0.90;;;0.90;;
80503;SDS011;69825;51.190;6.808;2023-07-28T13:33:52;0.95;;;0.80;;
80503;SDS011;69825;51.190;6.808;2023-07-28T13:36:17;1.02;;;0.85;;
80503;SDS011;69825;51.190;6.808;2023-07-28T13:38:42;0.82;;;0.80;;
80503;SDS011;69825;51.190;6.808;2023-07-28T13:41:08;0.80;;;0.80;;
80503;SDS011;69825;51.190;6.808;2023-07-28T13:43:33;0.80;;;0.80;;
80503;SDS011;69825;51.190;6.808;2023-07-28T13:46:01;0.75;;;0.70;;
80503;SDS011;69825;51.190;6.808;2023-07-28T13:48:27;0.70;;;0.70;;
80503;SDS011;69825;51.190;6.808;2023-07-28T13:50:52;0.80;;;0.80;;
80503;SDS011;69825;51.190;6.808;2023-07-28T13:53:17;1.33;;;0.95;;
80503;SDS011;69825;51.190;6.808;2023-07-28T13:55:43;0.82;;;0.82;;
80503;SDS011;69825;51.190;6.808;2023-07-28T13:58:08;0.82;;;0.80;;
80503;SDS011;69825;51.190;6.808;2023-07-28T14:00:33;0.80;;;0.80;;
80503;SDS011;69825;51.190;6.808;2023-07-28T14:02:59;1.08;;;0.88;;
80503;SDS011;69825;51.190;6.808;2023-07-28T14:05:24;0.93;;;0.80;;
80503;SDS011;69825;51.190;6.808;2023-07-28T14:07:49;0.90;;;0.90;;
80503;SDS011;69825;51.190;6.808;2023-07-28T14:10:15;0.95;;;0.70;;
80503;SDS011;69825;51.190;6.808;2023-07-28T14:12:40;1.50;;;0.70;;
80503;SDS011;69825;51.190;6.808;2023-07-28T14:15:06;0.90;;;0.80;;
80503;SDS011;69825;51.190;6.808;2023-07-28T14:17:32;1.40;;;0.90;;
80503;SDS011;69825;51.190;6.808;2023-07-28T14:19:58;0.85;;;0.75;;
80503;SDS011;69825;51.190;6.808;2023-07-28T14:22:23;1.23;;;0.80;;
80503;SDS011;69825;51.190;6.808;2023-07-28T14:24:48;1.40;;;0.80;;
80503;SDS011;69825;51.190;6.808;2023-07-28T14:27:14;1.23;;;0.90;;
80503;SDS011;69825;51.190;6.808;2023-07-28T14:29:39;0.60;;;0.60;;
80503;SDS011;69825;51.190;6.808;2023-07-28T14:32:05;1.92;;;0.77;;
80503;SDS011;69825;51.190;6.808;2023-07-28T14:34:30;1.30;;;0.70;;
80503;SDS011;69825;51.190;6.808;2023-07-28T14:36:55;3.45;;;0.70;;
80503;SDS011;69825;51.190;6.808;2023-07-28T14:39:21;1.95;;;0.80;;
80503;SDS011;69825;51.190;6.808;2023-07-28T14:41:46;2.03;;;0.80;;
80503;SDS011;69825;51.190;6.808;2023-07-28T14:44:12;1.58;;;0.70;;
80503;SDS011;69825;51.190;6.808;2023-07-28T14:46:37;0.95;;;0.80;;
80503;SDS011;69825;51.190;6.808;2023-07-28T14:49:02;0.80;;;0.80;;
80503;SDS011;69825;51.190;6.808;2023-07-28T14:51:28;0.60;;;0.60;;
80503;SDS011;69825;51.190;6.808;2023-07-28T14:53:53;1.08;;;0.60;;
80503;SDS011;69825;51.190;6.808;2023-07-28T14:56:20;1.15;;;0.80;;
80503;SDS011;69825;51.190;6.808;2023-07-28T14:58:49;0.90;;;0.68;;
80503;SDS011;69825;51.190;6.808;2023-07-28T15:01:16;3.38;;;0.90;;
80503;SDS011;69825;51.190;6.808;2023-07-28T15:03:41;2.35;;;0.77;;
80503;SDS011;69825;51.190;6.808;2023-07-28T15:06:07;2.05;;;0.90;;
80503;SDS011;69825;51.190;6.808;2023-07-28T15:08:32;2.75;;;0.73;;
80503;SDS011;69825;51.190;6.808;2023-07-28T15:10:58;2.97;;;0.77;;